Time;durP1;ratioP1;P1;durP2;ratioP2;P2;SDS_P1;SDS_P2;PMS_P1;PMS_P2;Temp;Humidity;BMP_temperature;BMP_pressure;BME280_temperature;BME280_humidity;BME280_pressure;Samples;Min_cycle;Max_cycle;Signal;HPM_P1;HPM_P2
2023/12/02 00:00:24;;;;;;;19.87;15.07;;;;;;;-1.34;77.55;100685.66;5056749;28;20192;-69
2023/12/02 00:02:52;;;;;;;16.53;13.43;;;;;;;-1.41;77.59;100688.59;5056179;28;20189;-69
2023/12/02 00:05:18;;;;;;;17.80;13.23;;;;;;;-1.43;77.48;100684.34;5056162;28;20181;-69
2023/12/02 00:07:45;;;;;;;17.90;13.60;;;;;;;-1.35;77.18;100691.81;5056034;28;20578;-69
2023/12/02 00:10:12;;;;;;;17.33;13.00;;;;;;;-1.40;76.99;100681.59;5056554;28;20656;-69
2023/12/02 00:12:38;;;;;;;13.97;11.63;;;;;;;-1.43;77.29;100685.19;5055988;28;20662;-69
2023/12/02 00:15:05;;;;;;;17.00;13.17;;;;;;;-1.44;76.79;100682.63;5055905;28;20260;-69
2023/12/02 00:17:32;;;;;;;22.80;13.43;;;;;;;-1.41;76.72;100688.59;5055753;28;20201;-69
2023/12/02 00:19:59;;;;;;;15.17;12.60;;;;;;;-1.46;76.70;100684.50;5055847;28;20269;-69
2023/12/02 00:22:25;;;;;;;20.40;13.17;;;;;;;-1.45;77.22;100686.19;5056099;28;20207;-69
2023/12/02 00:24:52;;;;;;;16.53;12.97;;;;;;;-1.43;76.61;100684.34;5056310;28;20185;-69
2023/12/02 00:27:18;;;;;;;15.80;12.27;;;;;;;-1.41;77.30;100691.22;5055710;28;20190;-69
2023/12/02 00:29:45;;;;;;;16.30;11.40;;;;;;;-1.41;77.38;100690.38;5055642;28;20250;-69
2023/12/02 00:32:12;;;;;;;11.03;10.07;;;;;;;-1.45;76.87;100684.44;5055856;28;20294;-69
2023/12/02 00:34:53;;;;;;;17.63;11.80;;;;;;;-1.49;77.13;100692.53;5055788;28;20535;-69
2023/12/02 00:37:19;;;;;;;13.90;11.73;;;;;;;-1.52;76.54;100695.28;5055786;28;20189;-69
2023/12/02 00:39:46;;;;;;;12.17;10.97;;;;;;;-1.47;76.88;100694.13;5055414;28;20211;-69
2023/12/02 00:42:12;;;;;;;14.03;11.70;;;;;;;-1.46;76.78;100694.97;5055662;28;20196;-70
2023/12/02 00:44:41;;;;;;;15.80;11.20;;;;;;;-1.48;76.84;100699.44;5055414;28;20185;-70
2023/12/02 00:47:07;;;;;;;16.13;12.50;;;;;;;-1.47;76.23;100699.38;5055348;28;20243;-70
2023/12/02 00:49:34;;;;;;;12.37;11.17;;;;;;;-1.47;76.53;100686.28;5055201;28;20694;-69
2023/12/02 00:52:00;;;;;;;12.40;10.57;;;;;;;-1.42;76.60;100693.91;5055218;28;20333;-69
2023/12/02 00:54:27;;;;;;;12.87;10.97;;;;;;;-1.48;76.34;100702.91;5055451;28;20257;-69
2023/12/02 00:56:53;;;;;;;11.77;10.57;;;;;;;-1.49;77.33;100703.00;5054235;28;20539;-69
2023/12/02 00:59:20;;;;;;;13.73;11.63;;;;;;;-1.50;76.96;100699.53;5055035;28;20210;-69
2023/12/02 01:01:46;;;;;;;14.63;11.60;;;;;;;-1.44;75.65;100693.97;5055333;28;20566;-69
2023/12/02 01:04:13;;;;;;;13.00;11.60;;;;;;;-1.48;76.33;100695.06;5054979;28;20189;-69
2023/12/02 01:06:39;;;;;;;14.03;12.17;;;;;;;-1.50;76.07;100699.53;5055548;28;20646;-69
2023/12/02 01:09:06;;;;;;;12.87;11.67;;;;;;;-1.57;76.37;100698.13;5055122;28;20205;-69
2023/12/02 01:11:32;;;;;;;12.60;11.23;;;;;;;-1.52;76.12;100701.38;5054883;28;20242;-69
2023/12/02 01:13:59;;;;;;;13.23;12.07;;;;;;;-1.52;75.83;100705.75;5055385;28;20193;-69
2023/12/02 01:16:25;;;;;;;11.53;10.63;;;;;;;-1.54;76.71;100705.00;5054776;28;20662;-69
2023/12/02 01:18:51;;;;;;;14.93;11.87;;;;;;;-1.62;76.79;100704.53;5054937;28;20586;-69
2023/12/02 01:21:18;;;;;;;11.43;10.23;;;;;;;-1.61;75.96;100708.88;5054714;28;20547;-69
2023/12/02 01:23:45;;;;;;;12.77;10.97;;;;;;;-1.65;75.52;100708.13;5054926;28;20267;-69
2023/12/02 01:26:11;;;;;;;13.97;12.00;;;;;;;-1.66;76.08;100714.31;5055166;28;20196;-69
2023/12/02 01:28:38;;;;;;;12.60;11.30;;;;;;;-1.58;75.61;100716.56;5054668;28;20271;-69
2023/12/02 01:31:04;;;;;;;11.40;10.27;;;;;;;-1.63;75.99;100718.56;5054521;28;20188;-69
2023/12/02 01:33:31;;;;;;;12.27;11.03;;;;;;;-1.59;76.66;100720.09;5054774;28;20246;-69
2023/12/02 01:35:57;;;;;;;13.23;11.80;;;;;;;-1.56;75.72;100722.56;5054926;28;20208;-69
2023/12/02 01:38:24;;;;;;;12.73;10.53;;;;;;;-1.49;75.83;100721.38;5054640;28;20258;-69
2023/12/02 01:40:50;;;;;;;13.10;11.70;;;;;;;-1.54;75.70;100733.84;5054876;28;20263;-69
2023/12/02 01:43:28;;;;;;;13.20;11.50;;;;;;;-1.56;75.80;100730.44;5054303;28;20193;-69
2023/12/02 01:45:55;;;;;;;12.33;11.13;;;;;;;-1.57;75.87;100732.19;5054562;28;20178;-69
2023/12/02 01:48:23;;;;;;;16.83;12.37;;;;;;;-1.55;76.34;100724.28;5054093;28;20206;-69
2023/12/02 01:50:50;;;;;;;13.60;11.50;;;;;;;-1.60;75.81;100719.25;5054433;28;20355;-69
2023/12/02 01:53:17;;;;;;;14.67;12.13;;;;;;;-1.58;75.98;100727.91;5054132;28;20196;-69
2023/12/02 01:55:44;;;;;;;18.20;13.13;;;;;;;-1.62;75.59;100722.88;5053983;28;20715;-69
2023/12/02 01:58:11;;;;;;;13.37;11.93;;;;;;;-1.56;75.90;100735.66;5052977;28;20255;-69
2023/12/02 02:00:38;;;;;;;15.90;11.90;;;;;;;-1.59;75.49;100735.81;5052781;28;20193;-69
2023/12/02 02:03:04;;;;;;;13.53;11.33;;;;;;;-1.60;74.93;100732.34;5054486;28;20192;-69
2023/12/02 02:05:31;;;;;;;15.23;10.87;;;;;;;-1.63;74.84;100732.50;5054081;28;20195;-69
2023/12/02 02:07:57;;;;;;;14.50;11.23;;;;;;;-1.59;75.96;100727.97;5053420;28;20210;-69
2023/12/02 02:10:24;;;;;;;16.57;12.17;;;;;;;-1.64;75.48;100735.19;5053799;28;20186;-69
2023/12/02 02:12:50;;;;;;;19.13;13.03;;;;;;;-1.57;75.08;100734.81;5054051;28;20249;-69
2023/12/02 02:15:17;;;;;;;13.93;12.17;;;;;;;-1.60;75.45;100731.50;5053862;28;20212;-69
2023/12/02 02:17:43;;;;;;;17.83;12.10;;;;;;;-1.57;75.55;100734.00;5053446;28;20225;-69
2023/12/02 02:20:10;;;;;;;14.70;11.43;;;;;;;-1.56;75.43;100738.28;5053619;28;20273;-69
2023/12/02 02:22:37;;;;;;;13.53;12.10;;;;;;;-1.59;75.92;100741.94;5053897;28;20533;-69
2023/12/02 02:25:04;;;;;;;14.00;12.47;;;;;;;-1.60;75.72;100742.84;5054088;28;20181;-69
2023/12/02 02:27:31;;;;;;;18.20;12.37;;;;;;;-1.62;75.98;100738.59;5053419;28;20194;-69
2023/12/02 02:29:58;;;;;;;13.67;11.90;;;;;;;-1.64;75.62;100738.66;5053515;28;20194;-66
2023/12/02 02:32:25;;;;;;;13.20;11.73;;;;;;;-1.65;75.67;100741.34;5053721;28;20696;-66
2023/12/02 02:34:52;;;;;;;16.50;11.70;;;;;;;-1.65;75.88;100749.22;5053278;28;20246;-70
2023/12/02 02:37:19;;;;;;;14.97;11.47;;;;;;;-1.66;76.38;100744.91;5053960;28;20186;-70
2023/12/02 02:39:45;;;;;;;14.03;12.23;;;;;;;-1.68;76.00;100752.00;5053248;28;20258;-69
2023/12/02 02:42:12;;;;;;;16.57;11.30;;;;;;;-1.66;76.27;100740.53;5053332;28;20185;-66
2023/12/02 02:44:38;;;;;;;12.63;10.90;;;;;;;-1.64;76.21;100743.06;5052360;28;20277;-66
2023/12/02 02:47:05;;;;;;;12.67;11.33;;;;;;;-1.60;76.16;100752.47;5053199;28;20195;-69
2023/12/02 02:49:31;;;;;;;15.37;12.53;;;;;;;-1.68;76.08;100752.84;5053381;28;20581;-69
2023/12/02 02:51:58;;;;;;;18.20;11.80;;;;;;;-1.68;75.61;100739.75;5053434;28;20224;-69
2023/12/02 02:54:24;;;;;;;17.30;12.87;;;;;;;-1.61;75.41;100749.00;5053192;28;20188;-66
2023/12/02 02:56:51;;;;;;;15.00;12.00;;;;;;;-1.62;75.67;100744.72;5053104;28;20246;-69
2023/12/02 02:59:18;;;;;;;16.63;12.17;;;;;;;-1.56;76.21;100746.16;5053059;28;20605;-69
2023/12/02 03:01:47;;;;;;;17.97;12.80;;;;;;;-1.56;76.23;100746.16;5053330;28;20199;-69
2023/12/02 03:04:13;;;;;;;15.37;12.57;;;;;;;-1.61;76.09;100753.41;5053304;28;20180;-69
2023/12/02 03:06:40;;;;;;;13.27;11.83;;;;;;;-1.67;76.30;100746.69;5053000;28;20268;-69
2023/12/02 03:09:07;;;;;;;12.80;11.33;;;;;;;-1.62;76.01;100751.72;5052954;28;20269;-69
2023/12/02 03:11:33;;;;;;;16.63;13.13;;;;;;;-1.55;75.46;100756.56;5053237;28;20220;-69
2023/12/02 03:14:00;;;;;;;12.17;10.60;;;;;;;-1.68;76.45;100746.75;5053316;28;20188;-69
2023/12/02 03:16:27;;;;;;;14.80;11.57;;;;;;;-1.65;75.86;100757.94;5052740;28;20301;-69
2023/12/02 03:18:53;;;;;;;15.03;11.93;;;;;;;-1.66;76.11;100744.91;5053159;28;20614;-69
2023/12/02 03:21:20;;;;;;;16.27;12.17;;;;;;;-1.71;76.40;100755.63;5056649;28;20188;-69
2023/12/02 03:23:49;;;;;;;14.73;11.40;;;;;;;-1.68;76.49;100762.47;5056945;28;20241;-69
2023/12/02 03:26:17;;;;;;;18.13;11.77;;;;;;;-1.63;76.25;100760.50;5056908;28;20206;-69
2023/12/02 03:28:43;;;;;;;14.43;11.73;;;;;;;-1.70;75.70;100762.56;5057067;28;20258;-69
2023/12/02 03:31:09;;;;;;;13.43;11.60;;;;;;;-1.70;76.00;100759.09;5056800;28;20655;-69
2023/12/02 03:33:36;;;;;;;13.93;11.03;;;;;;;-1.71;75.48;100758.25;5056812;28;20190;-69
2023/12/02 03:36:03;;;;;;;12.07;10.87;;;;;;;-1.68;75.07;100763.34;5057114;28;20217;-69
2023/12/02 03:38:29;;;;;;;12.90;11.63;;;;;;;-1.64;75.23;100762.25;5056891;28;20239;-69
2023/12/02 03:40:55;;;;;;;20.10;11.67;;;;;;;-1.62;74.53;100762.19;5056909;28;20241;-69
2023/12/02 03:43:22;;;;;;;15.70;11.63;;;;;;;-1.71;75.32;100762.63;5056590;28;20185;-69
2023/12/02 03:45:48;;;;;;;17.17;12.53;;;;;;;-1.68;75.84;100765.09;5056529;28;20182;-69
2023/12/02 03:48:15;;;;;;;15.00;12.20;;;;;;;-1.74;76.47;100765.41;5056648;28;20204;-69
2023/12/02 03:50:41;;;;;;;16.93;11.67;;;;;;;-1.68;76.25;100765.09;5056462;28;20220;-69
2023/12/02 03:53:08;;;;;;;13.43;11.67;;;;;;;-1.74;75.69;100763.59;5056946;28;20192;-69
2023/12/02 03:55:34;;;;;;;16.23;12.63;;;;;;;-1.74;76.30;100766.22;5056282;28;20203;-69
2023/12/02 03:58:00;;;;;;;15.67;12.33;;;;;;;-1.71;76.14;100762.63;5056683;28;20693;-69
2023/12/02 04:00:27;;;;;;;15.57;12.20;;;;;;;-1.69;76.64;100773.88;5056653;28;20189;-69
2023/12/02 04:02:54;;;;;;;14.93;12.33;;;;;;;-1.67;76.18;100770.28;5056493;28;20204;-69
2023/12/02 04:05:20;;;;;;;16.13;12.67;;;;;;;-1.62;76.61;100770.06;5056422;28;20196;-69
2023/12/02 04:07:46;;;;;;;19.10;12.47;;;;;;;-1.64;76.26;100770.13;5056756;28;20270;-69
2023/12/02 04:10:13;;;;;;;17.67;12.57;;;;;;;-1.65;75.71;100781.53;5056652;28;20691;-69
2023/12/02 04:12:40;;;;;;;18.37;12.60;;;;;;;-1.65;76.15;100783.28;5056329;28;20188;-70
2023/12/02 04:15:07;;;;;;;17.13;13.20;;;;;;;-1.65;76.39;100778.03;5056477;28;20201;-70
2023/12/02 04:17:33;;;;;;;16.50;12.77;;;;;;;-1.61;76.36;100784.88;5055834;28;20199;-69
2023/12/02 04:20:00;;;;;;;16.77;12.53;;;;;;;-1.64;76.23;100783.22;5056128;28;20197;-69
2023/12/02 04:22:26;;;;;;;20.30;13.13;;;;;;;-1.62;76.46;100796.28;5056091;28;20726;-69
2023/12/02 04:24:53;;;;;;;16.13;13.43;;;;;;;-1.61;76.64;100800.59;5056318;28;20208;-69
2023/12/02 04:27:20;;;;;;;16.77;12.70;;;;;;;-1.62;76.45;100794.50;5055764;28;20185;-69
2023/12/02 04:29:47;;;;;;;18.23;12.80;;;;;;;-1.66;77.32;100798.19;5055658;28;20226;-69
2023/12/02 04:32:13;;;;;;;15.93;12.67;;;;;;;-1.63;76.89;100799.81;5055423;28;20192;-69
2023/12/02 04:34:40;;;;;;;16.77;12.37;;;;;;;-1.60;77.49;100804.88;5055643;28;20189;-69
2023/12/02 04:37:06;;;;;;;18.20;12.70;;;;;;;-1.59;76.95;100798.72;5055500;28;20209;-69
2023/12/02 04:39:33;;;;;;;17.23;13.17;;;;;;;-1.53;76.29;100806.31;5055432;28;20266;-69
2023/12/02 04:42:00;;;;;;;22.60;12.50;;;;;;;-1.58;76.70;100805.69;5055456;28;20216;-69
2023/12/02 04:44:26;;;;;;;20.37;13.17;;;;;;;-1.65;76.61;100802.47;5055435;28;20199;-69
2023/12/02 04:46:52;;;;;;;15.30;12.37;;;;;;;-1.66;77.63;100811.28;5055918;28;20189;-69
2023/12/02 04:49:19;;;;;;;19.40;11.63;;;;;;;-1.69;77.28;100811.41;5055562;28;20636;-69
2023/12/02 04:51:45;;;;;;;18.33;13.10;;;;;;;-1.64;77.25;100819.06;5055265;28;20188;-69
2023/12/02 04:54:12;;;;;;;17.13;12.53;;;;;;;-1.69;76.69;100813.19;5055253;28;20222;-69
2023/12/02 04:56:38;;;;;;;16.47;12.83;;;;;;;-1.69;77.50;100824.53;5055141;28;20698;-69
2023/12/02 04:59:05;;;;;;;19.57;13.17;;;;;;;-1.70;77.48;100822.84;5055074;28;20214;-70
2023/12/02 05:01:32;;;;;;;20.47;12.57;;;;;;;-1.73;77.41;100816.88;5055678;28;20191;-70
2023/12/02 05:03:59;;;;;;;19.13;13.10;;;;;;;-1.78;77.67;100827.56;5055077;28;20203;-70
2023/12/02 05:06:27;;;;;;;18.00;12.67;;;;;;;-1.73;77.33;100824.72;5055048;28;20332;-70
2023/12/02 05:08:54;;;;;;;17.43;13.60;;;;;;;-1.78;77.71;100824.94;5055229;28;20573;-69
2023/12/02 05:11:21;;;;;;;16.13;13.07;;;;;;;-1.77;77.74;100826.66;5055496;28;20192;-69
2023/12/02 05:13:49;;;;;;;20.07;12.77;;;;;;;-1.77;77.36;100826.66;5055189;28;20190;-69
2023/12/02 05:16:16;;;;;;;13.90;11.97;;;;;;;-1.75;77.42;100834.47;5055585;28;20212;-69
2023/12/02 05:18:43;;;;;;;15.57;12.17;;;;;;;-1.75;77.98;100834.47;5054753;28;20266;-69
2023/12/02 05:21:09;;;;;;;14.80;11.90;;;;;;;-1.74;78.07;100836.16;5054850;28;20554;-69
2023/12/02 05:23:36;;;;;;;22.27;12.90;;;;;;;-1.70;77.54;100837.72;5054992;28;20193;-69
2023/12/02 05:26:03;;;;;;;20.03;13.80;;;;;;;-1.66;77.26;100844.50;5054687;28;20203;-69
2023/12/02 05:28:29;;;;;;;19.10;13.03;;;;;;;-1.69;77.42;100842.88;5054613;28;20207;-69
2023/12/02 05:30:56;;;;;;;17.67;12.90;;;;;;;-1.72;77.94;100852.66;5054582;28;20238;-69
2023/12/02 05:33:22;;;;;;;23.00;13.13;;;;;;;-1.71;78.19;100851.72;5054583;28;20244;-69
2023/12/02 05:35:49;;;;;;;17.63;12.90;;;;;;;-1.76;77.65;100841.47;5054672;28;20214;-69
2023/12/02 05:38:16;;;;;;;18.17;12.30;;;;;;;-1.74;77.89;100846.66;5054417;28;20271;-69
2023/12/02 05:40:43;;;;;;;17.63;12.80;;;;;;;-1.70;77.99;100862.16;5054428;28;20185;-69
2023/12/02 05:43:09;;;;;;;15.53;12.77;;;;;;;-1.71;77.94;100857.81;5053702;28;20235;-69
2023/12/02 05:45:35;;;;;;;19.10;13.60;;;;;;;-1.67;78.35;100863.78;5054281;28;20221;-69
2023/12/02 05:48:02;;;;;;;24.00;14.30;;;;;;;-1.66;78.46;100861.09;5054251;28;20211;-69
2023/12/02 05:50:29;;;;;;;20.37;13.60;;;;;;;-1.67;78.07;100859.38;5054160;28;20184;-69
2023/12/02 05:52:55;;;;;;;17.27;13.30;;;;;;;-1.68;78.68;100864.69;5054410;28;20187;-69
2023/12/02 05:55:22;;;;;;;19.57;13.80;;;;;;;-1.65;78.52;100852.28;5054707;28;20190;-69
2023/12/02 05:57:48;;;;;;;18.97;13.10;;;;;;;-1.59;78.48;100856.41;5054484;28;20285;-68
2023/12/02 06:00:18;;;;;;;20.17;13.77;;;;;;;-1.68;78.41;100865.53;5053996;28;20660;-68
2023/12/02 06:02:45;;;;;;;16.37;12.73;;;;;;;-1.67;78.52;100866.41;5055882;28;20193;-69
2023/12/02 06:05:11;;;;;;;22.33;13.70;;;;;;;-1.73;78.66;100870.13;5055798;28;20262;-69
2023/12/02 06:07:38;;;;;;;17.80;12.87;;;;;;;-1.67;78.21;100872.50;5054241;28;20616;-69
2023/12/02 06:10:07;;;;;;;21.27;13.60;;;;;;;-1.66;78.76;100871.56;5053839;28;20556;-69
2023/12/02 06:12:33;;;;;;;24.77;14.30;;;;;;;-1.70;78.21;100866.53;5053742;28;20191;-69
2023/12/02 06:15:00;;;;;;;19.83;13.07;;;;;;;-1.69;79.02;100862.97;5053970;28;20193;-69
2023/12/02 06:17:26;;;;;;;20.47;13.73;;;;;;;-1.68;79.09;100864.69;5053668;28;20307;-69
2023/12/02 06:19:53;;;;;;;23.37;13.47;;;;;;;-1.67;79.16;100864.63;5053631;28;20193;-69
2023/12/02 06:22:19;;;;;;;14.87;12.87;;;;;;;-1.72;78.56;100863.97;5053879;28;20579;-69
2023/12/02 06:24:46;;;;;;;19.10;13.67;;;;;;;-1.74;78.50;100860.56;5053587;28;20192;-69
2023/12/02 06:27:12;;;;;;;20.73;13.60;;;;;;;-1.75;78.41;100868.53;5053793;28;20599;-69
2023/12/02 06:29:39;;;;;;;16.27;12.40;;;;;;;-1.74;78.12;100870.22;5053431;28;20235;-69
2023/12/02 06:32:05;;;;;;;18.57;11.97;;;;;;;-1.75;78.92;100873.75;5053707;28;20561;-69
2023/12/02 06:34:32;;;;;;;21.00;12.13;;;;;;;-1.74;78.80;100875.47;5053952;28;20670;-69
2023/12/02 06:36:58;;;;;;;20.73;13.50;;;;;;;-1.75;78.22;100868.53;5053822;28;20204;-69
2023/12/02 06:39:24;;;;;;;19.53;13.17;;;;;;;-1.74;78.63;100873.66;5053538;28;20207;-69
2023/12/02 06:41:51;;;;;;;18.87;13.33;;;;;;;-1.73;78.43;100877.16;5053258;28;20184;-70
2023/12/02 06:44:17;;;;;;;17.43;13.17;;;;;;;-1.70;78.57;100885.75;5053245;28;20251;-70
2023/12/02 06:46:44;;;;;;;20.80;13.30;;;;;;;-1.70;79.28;100879.66;5053196;28;20188;-70
2023/12/02 06:49:10;;;;;;;19.63;13.70;;;;;;;-1.69;78.62;100891.81;5053131;28;20696;-69
2023/12/02 06:51:37;;;;;;;16.67;12.10;;;;;;;-1.70;78.45;100892.75;5053196;28;20198;-69
2023/12/02 06:54:03;;;;;;;23.93;14.83;;;;;;;-1.70;78.69;100887.50;5053155;28;20247;-69
2023/12/02 06:56:31;;;;;;;15.87;12.50;;;;;;;-1.69;78.70;100897.91;5053345;28;20215;-69
2023/12/02 06:58:58;;;;;;;23.80;15.73;;;;;;;-1.66;79.39;100913.50;5053308;28;20266;-69
2023/12/02 07:01:32;;;;;;;20.77;12.87;;;;;;;-1.62;79.33;100904.59;5053383;28;20193;-69
2023/12/02 07:04:00;;;;;;;22.03;13.23;;;;;;;-1.62;79.31;100908.97;5053424;28;20259;-69
2023/12/02 07:06:27;;;;;;;18.63;13.73;;;;;;;-1.66;79.18;100920.50;5053344;28;20207;-69
2023/12/02 07:08:55;;;;;;;16.10;12.33;;;;;;;-1.66;79.67;100920.50;5052940;28;20213;-69
2023/12/02 07:11:22;;;;;;;17.80;13.50;;;;;;;-1.64;79.60;100927.38;5053300;28;20197;-69
2023/12/02 07:13:48;;;;;;;14.40;12.87;;;;;;;-1.62;79.36;100927.31;5053308;28;20219;-69
2023/12/02 07:16:15;;;;;;;22.80;14.37;;;;;;;-1.60;79.50;100935.94;5052873;28;20199;-69
2023/12/02 07:18:41;;;;;;;20.43;13.87;;;;;;;-1.60;79.52;100941.19;5053046;28;20231;-69
2023/12/02 07:21:09;;;;;;;23.90;13.83;;;;;;;-1.62;79.63;100943.03;5053634;28;20188;-69
2023/12/02 07:23:36;;;;;;;22.23;14.87;;;;;;;-1.60;79.77;100949.91;5053606;28;20654;-69
2023/12/02 07:26:02;;;;;;;18.43;12.33;;;;;;;-1.57;78.73;100951.56;5052833;28;20193;-69
2023/12/02 07:28:29;;;;;;;18.97;13.27;;;;;;;-1.54;77.98;100959.28;5052704;28;20215;-69
2023/12/02 07:30:55;;;;;;;28.77;12.60;;;;;;;-1.57;78.59;100954.19;5052825;28;20605;-69
2023/12/02 07:33:22;;;;;;;18.60;12.50;;;;;;;-1.58;78.48;100962.97;5052800;28;20187;-70
2023/12/02 07:35:49;;;;;;;17.90;13.27;;;;;;;-1.61;78.26;100961.31;5053313;28;20185;-70
2023/12/02 07:38:16;;;;;;;16.10;12.43;;;;;;;-1.62;78.15;100958.78;5052954;28;20217;-70
2023/12/02 07:40:42;;;;;;;18.43;12.70;;;;;;;-1.59;78.15;100956.84;5052727;28;20562;-70
2023/12/02 07:43:09;;;;;;;18.37;13.03;;;;;;;-1.59;79.15;100963.88;5052942;28;20194;-70
2023/12/02 07:45:36;;;;;;;15.53;11.77;;;;;;;-1.61;78.48;100965.72;5052644;28;20557;-70
2023/12/02 07:48:02;;;;;;;17.17;12.77;;;;;;;-1.63;78.78;100970.16;5052602;28;20213;-69
2023/12/02 07:50:29;;;;;;;17.53;11.90;;;;;;;-1.60;79.14;100970.03;5052696;28;20529;-69
2023/12/02 07:52:55;;;;;;;15.63;12.90;;;;;;;-1.55;78.23;100965.44;5052665;28;20185;-69
2023/12/02 07:55:22;;;;;;;14.83;12.50;;;;;;;-1.56;77.63;100966.34;5052575;28;20195;-69
2023/12/02 07:57:49;;;;;;;17.40;12.77;;;;;;;-1.59;77.85;100963.88;5052644;28;20216;-69
2023/12/02 08:00:16;;;;;;;14.53;12.17;;;;;;;-1.61;78.16;100966.53;5052515;28;20175;-69
2023/12/02 08:02:42;;;;;;;15.93;12.23;;;;;;;-1.57;78.74;100975.97;5052770;28;20579;-69
2023/12/02 08:05:09;;;;;;;16.07;11.67;;;;;;;-1.57;77.94;100970.72;5052806;28;20204;-69
2023/12/02 08:07:39;;;;;;;13.17;11.63;;;;;;;-1.54;78.11;100975.00;5056417;28;20248;-69
2023/12/02 08:10:06;;;;;;;13.27;11.03;;;;;;;-1.56;77.62;100982.06;5056064;28;20201;-69
2023/12/02 08:12:33;;;;;;;18.67;13.13;;;;;;;-1.55;77.52;100987.25;5056321;28;20236;-69
2023/12/02 08:15:00;;;;;;;17.20;12.63;;;;;;;-1.56;77.58;100988.16;5056308;28;20181;-69
2023/12/02 08:17:26;;;;;;;23.60;12.80;;;;;;;-1.54;77.27;100994.22;5055838;28;20220;-69
2023/12/02 08:19:53;;;;;;;15.57;12.13;;;;;;;-1.51;77.87;100988.81;5055879;28;20275;-69
2023/12/02 08:22:24;;;;;;;16.53;12.43;;;;;;;-1.46;77.92;101001.72;5055927;28;20200;-69
2023/12/02 08:24:52;;;;;;;15.40;11.67;;;;;;;-1.39;77.23;100996.13;5055758;28;20182;-69
2023/12/02 08:27:19;;;;;;;10.73;10.03;;;;;;;-1.41;77.56;100997.13;5055779;28;20241;-69
2023/12/02 08:29:45;;;;;;;13.13;11.77;;;;;;;-1.44;77.40;100997.25;5055675;28;20255;-69
2023/12/02 08:32:12;;;;;;;10.77;9.70;;;;;;;-1.49;77.39;100997.47;5055659;28;20193;-70
2023/12/02 08:34:38;;;;;;;12.30;9.07;;;;;;;-1.49;77.79;101009.72;5056106;28;20191;-70
2023/12/02 08:37:06;;;;;;;12.23;9.97;;;;;;;-1.47;77.85;101002.63;5055492;28;20210;-70
2023/12/02 08:39:33;;;;;;;17.53;11.37;;;;;;;-1.46;78.14;101009.59;5055300;28;20214;-69
2023/12/02 08:41:59;;;;;;;11.17;9.97;;;;;;;-1.45;77.94;101008.69;5055478;28;20248;-70
2023/12/02 08:44:25;;;;;;;11.60;9.73;;;;;;;-1.46;78.14;101015.69;5055458;28;20184;-70
2023/12/02 08:46:55;;;;;;;10.97;9.97;;;;;;;-1.46;77.77;101018.31;5055943;28;20192;-70
2023/12/02 08:49:21;;;;;;;12.43;10.20;;;;;;;-1.42;78.02;101013.78;5055371;28;20203;-69
2023/12/02 08:51:48;;;;;;;14.87;11.67;;;;;;;-1.42;77.33;101022.50;5055821;28;20236;-69
2023/12/02 08:54:14;;;;;;;14.83;11.87;;;;;;;-1.36;78.00;101025.75;5054420;28;20196;-69
2023/12/02 08:56:41;;;;;;;11.53;10.33;;;;;;;-1.32;77.78;101022.09;5055504;28;20692;-69
2023/12/02 08:59:08;;;;;;;19.73;12.80;;;;;;;-1.29;77.49;101022.78;5055139;28;20214;-69
2023/12/02 09:01:34;;;;;;;18.93;11.63;;;;;;;-1.28;77.32;101023.66;5055401;28;20198;-69
2023/12/02 09:04:01;;;;;;;14.17;10.77;;;;;;;-1.26;77.44;101030.50;5055115;28;20666;-69
2023/12/02 09:06:28;;;;;;;16.37;11.70;;;;;;;-1.23;77.66;101026.91;5055318;28;20193;-70
2023/12/02 09:08:55;;;;;;;15.90;11.83;;;;;;;-1.11;77.66;101037.69;5054846;28;20216;-70
2023/12/02 09:11:21;;;;;;;14.53;11.43;;;;;;;-1.07;77.46;101035.78;5055469;28;20558;-70
2023/12/02 09:13:49;;;;;;;16.23;12.20;;;;;;;-1.04;76.11;101033.00;5055253;28;20570;-70
2023/12/02 09:16:26;;;;;;;18.70;11.80;;;;;;;-0.98;76.46;101040.63;5055036;28;20308;-70
2023/12/02 09:18:52;;;;;;;12.00;10.70;;;;;;;-0.98;76.60;101041.44;5054051;28;20260;-69
2023/12/02 09:21:44;;;;;;;14.60;10.97;;;;;;;-0.88;76.67;101047.13;5054977;28;20235;-70
2023/12/02 09:24:34;;;;;;;12.03;10.63;;;;;;;-0.76;76.77;101048.31;5054738;28;20216;-70
2023/12/02 09:27:07;;;;;;;14.30;11.27;;;;;;;-0.62;75.50;101051.13;5055239;28;20245;-70
2023/12/02 09:29:40;;;;;;;15.43;10.87;;;;;;;-0.67;75.05;101038.22;5054775;28;20210;-70
2023/12/02 09:32:24;;;;;;;12.57;11.27;;;;;;;-0.64;74.50;101045.97;5054916;28;20261;-70
2023/12/02 09:34:57;;;;;;;14.47;11.53;;;;;;;-0.59;73.77;101050.97;5054896;28;20202;-70
2023/12/02 09:37:52;;;;;;;24.50;12.43;;;;;;;-0.71;74.57;101046.31;5054588;28;20569;-70
2023/12/02 09:40:21;;;;;;;19.03;11.43;;;;;;;-0.67;75.16;101053.13;5054693;28;20184;-70
2023/12/02 09:42:55;;;;;;;19.40;12.47;;;;;;;-0.49;74.33;101057.50;5054340;28;20236;-70
2023/12/02 09:45:26;;;;;;;21.43;14.33;;;;;;;-0.52;74.45;101050.66;5054576;28;20189;-70
2023/12/02 09:48:11;;;;;;;19.43;13.80;;;;;;;-0.51;75.50;101051.50;5054796;28;20268;-70
2023/12/02 09:50:55;;;;;;;25.40;16.30;;;;;;;-0.54;75.79;101057.72;5054627;28;20265;-70
2023/12/02 09:53:49;;;;;;;25.80;15.13;;;;;;;-0.44;76.02;101058.16;5054478;28;20628;-70
2023/12/02 09:56:25;;;;;;;25.47;16.00;;;;;;;-0.54;75.49;101057.72;5054372;28;20623;-70
2023/12/02 09:59:21;;;;;;;27.80;16.30;;;;;;;-0.53;76.26;101059.44;5054076;28;20219;-66
2023/12/02 10:02:03;;;;;;;30.07;17.73;;;;;;;-0.50;76.68;101054.03;5054390;28;20189;-69
2023/12/02 10:04:35;;;;;;;27.30;16.53;;;;;;;-0.49;77.22;101063.63;5054342;28;20170;-69
2023/12/02 10:07:19;;;;;;;29.40;15.90;;;;;;;-0.42;76.08;101056.28;5053968;28;20227;-69
2023/12/02 10:10:03;;;;;;;25.53;16.30;;;;;;;-0.36;76.76;101066.50;5053885;28;20218;-69
2023/12/02 10:12:56;;;;;;;25.33;15.83;;;;;;;-0.43;76.65;101065.09;5054724;28;20168;-69
2023/12/02 10:15:27;;;;;;;28.60;16.53;;;;;;;-0.42;77.04;101058.09;5053712;28;20201;-69
2023/12/02 10:18:00;;;;;;;27.13;17.03;;;;;;;-0.45;76.23;101059.06;5053828;28;20260;-69
2023/12/02 10:20:28;;;;;;;20.63;14.63;;;;;;;-0.50;76.56;101061.91;5054044;28;20605;-67
2023/12/02 10:22:59;;;;;;;24.93;15.33;;;;;;;-0.56;76.14;101058.75;5053537;28;20222;-66
2023/12/02 10:25:45;;;;;;;27.07;15.27;;;;;;;-0.53;76.63;101053.34;5053609;28;20290;-68
2023/12/02 10:28:18;;;;;;;28.23;17.37;;;;;;;-0.62;76.14;101052.00;5053636;28;20211;-66
2023/12/02 10:30:51;;;;;;;29.63;16.50;;;;;;;-0.59;75.79;101056.25;5054050;28;20186;-66
2023/12/02 10:33:42;;;;;;;26.83;16.27;;;;;;;-0.58;76.03;101057.94;5053755;28;20647;-66
2023/12/02 10:36:10;;;;;;;28.90;16.53;;;;;;;-0.62;75.75;101051.13;5053404;28;20217;-66
2023/12/02 10:39:00;;;;;;;26.27;16.50;;;;;;;-0.50;75.99;101055.81;5053218;28;20261;-66
2023/12/02 10:41:47;;;;;;;29.67;17.73;;;;;;;-0.49;75.80;101047.84;5053371;28;20199;-66
2023/12/02 10:44:18;;;;;;;27.77;16.07;;;;;;;-0.37;76.03;101058.69;5052254;28;20181;-68
2023/12/02 10:46:45;;;;;;;27.17;15.67;;;;;;;-0.28;75.77;101059.09;5053618;28;20179;-68
2023/12/02 10:49:12;;;;;;;27.63;16.60;;;;;;;-0.17;74.94;101061.22;5053158;28;20204;-66
2023/12/02 10:51:41;;;;;;;22.50;15.90;;;;;;;-0.20;75.39;101056.94;5053209;28;20193;-66
2023/12/02 10:54:12;;;;;;;21.93;14.97;;;;;;;-0.13;74.47;101065.41;5053181;28;20183;-68
2023/12/02 10:56:39;;;;;;;30.30;18.53;;;;;;;-0.15;73.15;101060.19;5053112;28;20195;-69
2023/12/02 10:59:08;;;;;;;29.17;18.57;;;;;;;-0.31;74.32;101059.25;5053277;28;20582;-69
2023/12/02 11:02:01;;;;;;;25.37;18.40;;;;;;;-0.14;73.97;101063.69;5053082;28;20253;-69
2023/12/02 11:04:33;;;;;;;30.23;17.37;;;;;;;-0.11;74.03;101061.75;5053051;28;20189;-69
2023/12/02 11:07:07;;;;;;;35.83;21.10;;;;;;;-0.10;74.44;101071.34;5052996;28;20182;-69
2023/12/02 11:09:42;;;;;;;26.50;18.37;;;;;;;-0.04;74.31;101068.41;5052353;28;20263;-69
2023/12/02 11:12:16;;;;;;;28.50;17.97;;;;;;;-0.14;73.84;101069.78;5053571;28;20225;-68
2023/12/02 11:14:46;;;;;;;30.03;17.57;;;;;;;-0.20;73.01;101070.09;5053172;28;20261;-69